Sovereign Star — WDC7330 — position and weather

sailwx.info

Track history (hours):
 
Tides and Currents Weather Stations Pressure Air Temp Water Temp Dewpoint Dewpoint Depression Visibility Wind Speed Wind Dir Waves Ship Positions

Sovereign Star

Owner: SOVEREIGN STAR FISHING INC, NEW BEDFORD, MA. More information available from US FCC via Universal Licensing System and Coast Guard Vessel Documentation Center.

Last reported at 2015-Sep-03 07:27 UTC. Time now 2015-Sep-03 15:16 UTC.
Position N 41°30' W 069°24'.

Length 19 m.

Type: Ship. MMSI: 367069720.

Date/timePositionNaut miles runAvg speedWind from/ knotsBaromVisibWave heightAir tempDewpointWater temp
2015-Sep-03 07:27N 41°30' W 069°24'6 4.7
2015-Sep-03 06:12N 41°35' W 069°28'4 4.4
2015-Sep-03 05:13N 41°37' W 069°34'3 4.4
2015-Sep-03 04:27N 41°38' W 069°38'  
2015-Aug-25 02:28N 41°32' W 070°52'9 8.1
2015-Aug-25 01:24N 41°24' W 070°51'6 7.0
2015-Aug-25 00:33N 41°18' W 070°49'9 8.0
2015-Aug-24 23:25N 41°13' W 070°39'16 8.1
2015-Aug-24 21:24N 41°06' W 070°19'  
Track history (hours):
 
Tides and Currents Weather Stations Pressure Air Temp Water Temp Dewpoint Dewpoint Depression Visibility Wind Speed Wind Dir Waves Ship Positions

Sovereign Star

Owner: SOVEREIGN STAR FISHING INC, NEW BEDFORD, MA. More information available from US FCC via Universal Licensing System and Coast Guard Vessel Documentation Center.

Last reported at 2015-Sep-03 07:27 UTC. Time now 2015-Sep-03 15:16 UTC.
Position N 41°30' W 069°24'.

Length 19 m.

Type: Ship. MMSI: 367069720.

Date/timePositionNaut miles runAvg speedWind from/ knotsBaromVisibWave heightAir tempDewpointWater temp
2015-Sep-03 07:27N 41°30' W 069°24'6 4.7
2015-Sep-03 06:12N 41°35' W 069°28'4 4.4
2015-Sep-03 05:13N 41°37' W 069°34'3 4.4
2015-Sep-03 04:27N 41°38' W 069°38'  
2015-Aug-25 02:28N 41°32' W 070°52'9 8.1
2015-Aug-25 01:24N 41°24' W 070°51'6 7.0
2015-Aug-25 00:33N 41°18' W 070°49'9 8.0
2015-Aug-24 23:25N 41°13' W 070°39'16 8.1
2015-Aug-24 21:24N 41°06' W 070°19'  

Dump ship's entire track history